createdAt,value
2022-11-05T00:00:30.605Z,7.80
2022-11-05T00:01:21.330Z,7.90
2022-11-05T00:02:11.683Z,7.80
2022-11-05T00:03:03.368Z,7.80
2022-11-05T00:03:53.813Z,7.80
2022-11-05T00:04:44.223Z,7.80
2022-11-05T00:05:34.457Z,7.80
2022-11-05T00:06:27.646Z,7.90
2022-11-05T00:07:39.166Z,7.90
2022-11-05T00:08:29.633Z,7.90
2022-11-05T00:09:19.665Z,7.90
2022-11-05T00:09:59.215Z,7.90
2022-11-05T00:10:34.328Z,7.90
2022-11-05T00:11:06.155Z,7.90
2022-11-05T00:11:56.476Z,8.00
2022-11-05T00:12:47.071Z,8.00
2022-11-05T00:13:37.782Z,8.00
2022-11-05T00:14:28.317Z,7.90
2022-11-05T00:15:18.685Z,7.90
2022-11-05T00:16:09.111Z,7.90
2022-11-05T00:16:44.850Z,7.90
2022-11-05T00:17:16.630Z,7.90
2022-11-05T00:17:49.753Z,7.90
2022-11-05T00:18:22.502Z,7.90
2022-11-05T00:19:06.471Z,7.90
2022-11-05T00:19:38.449Z,8.00
2022-11-05T00:20:13.401Z,8.00
2022-11-05T00:20:45.310Z,8.00
2022-11-05T00:21:32.012Z,8.10
2022-11-05T00:22:22.197Z,8.00
2022-11-05T00:23:18.691Z,8.00
2022-11-05T00:24:14.319Z,8.00
2022-11-05T00:25:05.151Z,8.00
2022-11-05T00:25:37.935Z,8.00
2022-11-05T00:26:11.420Z,8.00
2022-11-05T00:26:43.192Z,8.00
2022-11-05T00:27:15.922Z,8.00
2022-11-05T00:27:49.512Z,8.00
2022-11-05T00:28:21.402Z,8.00
2022-11-05T00:28:54.396Z,8.00
2022-11-05T00:29:26.222Z,8.00
2022-11-05T00:29:58.006Z,7.90
2022-11-05T00:30:31.564Z,7.90
2022-11-05T00:31:05.473Z,7.90
2022-11-05T00:31:37.426Z,7.90
2022-11-05T00:32:09.210Z,7.90
2022-11-05T00:32:41.987Z,7.90
2022-11-05T00:33:15.211Z,7.90
2022-11-05T00:33:47.978Z,7.90
2022-11-05T00:34:19.757Z,7.90
2022-11-05T00:34:51.600Z,7.90
2022-11-05T00:35:24.386Z,7.90
2022-11-05T00:35:56.185Z,7.90
2022-11-05T00:36:28.015Z,8.00
2022-11-05T00:37:00.783Z,8.00
2022-11-05T00:37:32.581Z,7.90
2022-11-05T00:38:05.394Z,7.90
2022-11-05T00:38:37.547Z,8.00
2022-11-05T00:39:09.451Z,7.90
2022-11-05T00:39:41.212Z,8.00
2022-11-05T00:40:15.416Z,8.00
2022-11-05T00:40:47.333Z,8.00
2022-11-05T00:41:19.152Z,7.90
2022-11-05T00:42:11.136Z,7.90
2022-11-05T00:43:13.974Z,8.00
2022-11-05T00:44:15.837Z,7.90
2022-11-05T00:45:00.774Z,7.90
2022-11-05T00:45:33.591Z,7.90
2022-11-05T00:46:05.672Z,7.90
2022-11-05T00:46:37.463Z,7.90
2022-11-05T00:47:27.925Z,7.90
2022-11-05T00:48:18.472Z,7.90
2022-11-05T00:49:10.251Z,8.00
2022-11-05T00:49:42.069Z,7.90
2022-11-05T00:50:15.146Z,7.90
2022-11-05T00:50:46.928Z,7.80
2022-11-05T00:51:19.712Z,7.80
2022-11-05T00:52:11.558Z,7.80
2022-11-05T00:52:55.536Z,7.90
2022-11-05T00:53:28.391Z,7.90
2022-11-05T00:54:00.214Z,7.80
2022-11-05T00:54:32.089Z,7.80
2022-11-05T00:55:04.507Z,7.90
2022-11-05T00:55:39.232Z,7.90
2022-11-05T00:56:11.062Z,7.90
2022-11-05T00:56:42.867Z,7.90
2022-11-05T00:57:14.716Z,7.90
2022-11-05T00:57:47.477Z,7.90
2022-11-05T00:58:21.194Z,7.80
2022-11-05T00:58:53.950Z,7.80
2022-11-05T00:59:25.754Z,7.80
2022-11-05T00:59:57.531Z,7.80
2022-11-05T01:00:32.230Z,7.80
2022-11-05T01:01:04.342Z,7.80
2022-11-05T01:01:37.263Z,7.80
2022-11-05T01:02:09.257Z,7.70
2022-11-05T01:02:41.808Z,7.80
2022-11-05T01:03:17.006Z,7.80
2022-11-05T01:03:51.692Z,7.80
2022-11-05T01:04:25.310Z,7.80
2022-11-05T01:04:57.187Z,7.80
2022-11-05T01:05:30.614Z,7.80
2022-11-05T01:06:08.427Z,7.80
2022-11-05T01:06:41.204Z,7.90
2022-11-05T01:07:13.003Z,7.80
2022-11-05T01:07:44.938Z,7.80
2022-11-05T01:08:19.659Z,7.80
2022-11-05T01:08:51.423Z,7.80
2022-11-05T01:09:23.207Z,7.80
2022-11-05T01:09:55.003Z,7.80
2022-11-05T01:10:28.326Z,7.80
2022-11-05T01:11:00.206Z,7.80
2022-11-05T01:11:35.219Z,7.80
2022-11-05T01:12:08.148Z,7.80
2022-11-05T01:12:39.967Z,7.80
2022-11-05T01:13:13.431Z,7.80
2022-11-05T01:13:46.381Z,7.80
2022-11-05T01:14:18.147Z,7.80
2022-11-05T01:14:49.979Z,7.80
2022-11-05T01:15:22.216Z,7.80
2022-11-05T01:15:55.146Z,7.80
2022-11-05T01:16:26.997Z,7.80
2022-11-05T01:16:58.903Z,7.80
2022-11-05T01:17:30.711Z,7.80
2022-11-05T01:18:03.677Z,7.80
2022-11-05T01:18:37.139Z,7.80
2022-11-05T01:19:11.250Z,7.80
2022-11-05T01:19:44.430Z,7.80
2022-11-05T01:20:16.511Z,7.90
2022-11-05T01:20:49.604Z,7.80
2022-11-05T01:21:21.421Z,7.80
2022-11-05T01:21:53.193Z,7.90
2022-11-05T01:22:25.996Z,7.90
2022-11-05T01:22:58.238Z,7.90
2022-11-05T01:23:30.033Z,7.90
2022-11-05T01:24:03.618Z,7.80
2022-11-05T01:24:35.451Z,7.80
2022-11-05T01:25:08.788Z,7.80
2022-11-05T01:25:41.631Z,7.80
2022-11-05T01:26:13.421Z,7.80
2022-11-05T01:26:45.186Z,7.80
2022-11-05T01:27:17.017Z,7.80
2022-11-05T01:27:49.886Z,7.80
2022-11-05T01:28:21.806Z,7.80
2022-11-05T01:28:53.832Z,7.90
2022-11-05T01:29:26.646Z,7.90
2022-11-05T01:29:58.444Z,7.90
2022-11-05T01:30:30.840Z,7.90
2022-11-05T01:31:03.702Z,7.90
2022-11-05T01:31:41.254Z,7.90
2022-11-05T01:32:13.058Z,7.90
2022-11-05T01:32:45.953Z,7.90
2022-11-05T01:33:17.919Z,8.00
2022-11-05T01:33:50.594Z,8.00
2022-11-05T01:34:23.373Z,8.00
2022-11-05T01:34:56.555Z,8.00
2022-11-05T01:35:29.303Z,8.00
2022-11-05T01:36:01.160Z,8.00
2022-11-05T01:36:33.931Z,8.00
2022-11-05T01:37:05.751Z,8.00
2022-11-05T01:37:37.562Z,8.10
2022-11-05T01:38:10.323Z,8.10
2022-11-05T01:38:42.136Z,8.10
2022-11-05T01:39:14.167Z,8.20
2022-11-05T01:39:47.002Z,8.20
2022-11-05T01:40:21.724Z,8.20
2022-11-05T01:40:53.538Z,8.20
2022-11-05T01:41:26.338Z,8.20
2022-11-05T01:41:58.739Z,8.20
2022-11-05T01:42:32.523Z,8.20
2022-11-05T01:43:15.136Z,8.20
2022-11-05T01:43:49.045Z,8.20
2022-11-05T01:44:51.640Z,8.20
2022-11-05T01:45:25.918Z,8.30
2022-11-05T01:45:58.786Z,8.30
2022-11-05T01:46:34.400Z,8.30
2022-11-05T01:47:06.247Z,8.30
2022-11-05T01:48:03.841Z,8.30
2022-11-05T01:48:36.101Z,8.30
2022-11-05T01:49:14.157Z,8.30
2022-11-05T01:49:46.121Z,8.30
2022-11-05T01:50:36.700Z,8.30
2022-11-05T01:51:11.890Z,8.30
2022-11-05T01:51:45.831Z,8.30
2022-11-05T01:52:19.560Z,8.30
2022-11-05T01:52:56.096Z,8.30
2022-11-05T01:53:32.320Z,8.20
2022-11-05T01:54:09.819Z,8.30
2022-11-05T01:54:41.720Z,8.20
2022-11-05T01:55:14.522Z,8.20
2022-11-05T01:55:52.496Z,8.20
2022-11-05T01:56:29.926Z,8.20
2022-11-05T01:57:07.220Z,8.20
2022-11-05T01:57:40.107Z,8.20
2022-11-05T01:58:14.692Z,8.20
2022-11-05T01:58:52.143Z,8.20
2022-11-05T01:59:29.311Z,8.20
2022-11-05T02:00:02.102Z,8.10
2022-11-05T02:00:34.456Z,8.10
2022-11-05T02:01:07.273Z,8.10
2022-11-05T02:01:39.203Z,8.10
2022-11-05T02:02:11.355Z,8.10
2022-11-05T02:02:44.865Z,8.10
2022-11-05T02:03:18.414Z,8.10
2022-11-05T02:03:53.415Z,8.20
2022-11-05T02:04:31.700Z,8.20
2022-11-05T02:05:06.524Z,8.20
2022-11-05T02:05:40.737Z,8.20
2022-11-05T02:06:15.869Z,8.20
2022-11-05T02:06:47.761Z,8.20
2022-11-05T02:07:20.613Z,8.20
2022-11-05T02:07:54.455Z,8.20
2022-11-05T02:08:43.894Z,8.20
2022-11-05T02:09:20.581Z,8.10
2022-11-05T02:10:00.093Z,8.20
2022-11-05T02:10:32.960Z,8.20
2022-11-05T02:11:05.827Z,8.20
2022-11-05T02:11:38.704Z,8.10
2022-11-05T02:12:12.861Z,8.20
2022-11-05T02:12:46.826Z,8.10
2022-11-05T02:13:19.669Z,8.10
2022-11-05T02:13:51.878Z,8.10
2022-11-05T02:14:23.944Z,8.10
2022-11-05T02:14:57.370Z,8.20
2022-11-05T02:15:39.940Z,8.20
2022-11-05T02:16:19.546Z,8.10
2022-11-05T02:16:56.336Z,8.10
2022-11-05T02:17:39.406Z,8.10
2022-11-05T02:18:20.980Z,8.10
2022-11-05T02:19:04.359Z,8.10
2022-11-05T02:20:01.002Z,8.10
2022-11-05T02:20:39.829Z,8.00
2022-11-05T02:21:41.444Z,8.00
2022-11-05T02:22:31.721Z,8.00
2022-11-05T02:23:40.996Z,8.00
2022-11-05T02:24:41.471Z,8.00
2022-11-05T02:25:40.678Z,8.00
2022-11-05T02:26:39.558Z,8.00
2022-11-05T02:27:18.864Z,8.00
2022-11-05T02:28:28.376Z,8.00
2022-11-05T02:29:36.232Z,7.90
2022-11-05T02:30:31.597Z,7.90
2022-11-05T02:31:12.587Z,7.90
2022-11-05T02:31:49.709Z,7.90
2022-11-05T02:32:32.860Z,7.90
2022-11-05T02:33:26.051Z,7.90
2022-11-05T02:34:04.340Z,7.80
2022-11-05T02:34:45.959Z,7.80
2022-11-05T02:35:31.728Z,7.80
2022-11-05T02:36:25.249Z,7.80
2022-11-05T02:37:08.727Z,7.80
2022-11-05T02:37:45.726Z,7.80
2022-11-05T02:38:23.007Z,7.80
2022-11-05T02:39:06.986Z,7.90
2022-11-05T02:39:47.076Z,7.80
2022-11-05T02:40:26.067Z,7.90
2022-11-05T02:41:07.489Z,7.90
2022-11-05T02:41:48.967Z,7.90
2022-11-05T02:42:30.133Z,7.90
2022-11-05T02:43:15.961Z,7.90
2022-11-05T02:43:59.166Z,7.90
2022-11-05T02:44:39.216Z,8.00
2022-11-05T02:45:22.326Z,8.00
2022-11-05T02:46:04.382Z,8.00
2022-11-05T02:46:45.023Z,8.00
2022-11-05T02:47:25.809Z,8.00
2022-11-05T02:48:07.287Z,8.10
2022-11-05T02:48:46.221Z,8.00
2022-11-05T02:49:27.869Z,8.10
2022-11-05T02:50:10.176Z,8.00
2022-11-05T02:50:50.076Z,8.00
2022-11-05T02:51:28.515Z,8.00
2022-11-05T02:52:06.312Z,8.00
2022-11-05T02:52:46.040Z,8.00
2022-11-05T02:53:25.175Z,8.00
2022-11-05T02:54:03.401Z,8.00
2022-11-05T02:54:40.672Z,8.00
2022-11-05T02:55:18.578Z,8.00
2022-11-05T02:55:55.406Z,8.00
2022-11-05T02:56:33.130Z,8.00
2022-11-05T02:57:06.143Z,8.00
2022-11-05T02:57:43.671Z,8.00
2022-11-05T02:58:16.442Z,8.00
2022-11-05T02:58:48.293Z,8.00
2022-11-05T02:59:20.082Z,8.00
2022-11-05T03:00:01.848Z,8.00
2022-11-05T03:00:43.772Z,8.00
2022-11-05T03:01:18.227Z,8.00
2022-11-05T03:01:52.195Z,8.10
2022-11-05T03:02:24.193Z,8.00
2022-11-05T03:02:56.136Z,8.00
2022-11-05T03:03:34.304Z,8.00
2022-11-05T03:04:09.836Z,8.10
2022-11-05T03:04:42.723Z,8.10
2022-11-05T03:05:14.609Z,8.10
2022-11-05T03:05:55.711Z,8.10
2022-11-05T03:06:54.354Z,8.10
2022-11-05T03:07:33.879Z,8.20
2022-11-05T03:08:14.348Z,8.10
2022-11-05T03:09:06.935Z,8.10
2022-11-05T03:09:51.824Z,8.10
2022-11-05T03:10:42.038Z,8.10
2022-11-05T03:11:16.320Z,8.10
2022-11-05T03:11:59.727Z,8.10
2022-11-05T03:12:39.534Z,8.20
2022-11-05T03:13:17.809Z,8.20
2022-11-05T03:13:54.142Z,8.20
2022-11-05T03:14:39.396Z,8.20
2022-11-05T03:15:21.175Z,8.30
2022-11-05T03:15:57.231Z,8.30
2022-11-05T03:16:39.654Z,8.30
2022-11-05T03:17:19.604Z,8.40
2022-11-05T03:18:00.901Z,8.40
2022-11-05T03:18:42.184Z,8.40
2022-11-05T03:19:19.846Z,8.40
2022-11-05T03:20:01.187Z,8.40
2022-11-05T03:20:37.642Z,8.30
2022-11-05T03:21:14.834Z,8.30
2022-11-05T03:21:53.229Z,8.30
2022-11-05T03:22:28.998Z,8.30
2022-11-05T03:23:09.397Z,8.30
2022-11-05T03:23:47.239Z,8.20
2022-11-05T03:24:23.504Z,8.20
2022-11-05T03:25:00.466Z,8.20
2022-11-05T03:25:40.168Z,8.30
2022-11-05T03:26:18.026Z,8.30
2022-11-05T03:26:56.470Z,8.30
2022-11-05T03:27:32.676Z,8.30
2022-11-05T03:28:08.621Z,8.30
2022-11-05T03:28:44.041Z,8.30
2022-11-05T03:29:22.110Z,8.30
2022-11-05T03:30:00.273Z,8.40
2022-11-05T03:30:35.056Z,8.40
2022-11-05T03:31:08.298Z,8.40
2022-11-05T03:31:44.444Z,8.40
2022-11-05T03:32:20.477Z,8.40
2022-11-05T03:33:04.323Z,8.40
2022-11-05T03:33:40.083Z,8.50
2022-11-05T03:34:14.875Z,8.40
2022-11-05T03:34:49.888Z,8.50
2022-11-05T03:35:26.583Z,8.50
2022-11-05T03:36:03.227Z,8.60
2022-11-05T03:36:41.106Z,8.60
2022-11-05T03:37:16.148Z,8.60
2022-11-05T03:37:51.052Z,8.60
2022-11-05T03:38:27.434Z,8.60
2022-11-05T03:39:06.011Z,8.60
2022-11-05T03:39:41.591Z,8.60
2022-11-05T03:40:16.547Z,8.60
2022-11-05T03:40:53.547Z,8.60
2022-11-05T03:41:26.954Z,8.60
2022-11-05T03:42:00.124Z,8.50
2022-11-05T03:42:36.472Z,8.50
2022-11-05T03:43:09.657Z,8.50
2022-11-05T03:43:46.779Z,8.50
2022-11-05T03:44:24.529Z,8.40
2022-11-05T03:45:00.152Z,8.50
2022-11-05T03:45:36.589Z,8.50
2022-11-05T03:46:12.932Z,8.50
2022-11-05T03:46:49.255Z,8.40
2022-11-05T03:47:25.844Z,8.50
2022-11-05T03:48:01.455Z,8.50
2022-11-05T03:48:38.879Z,8.50
2022-11-05T03:49:17.132Z,8.50
2022-11-05T03:49:56.464Z,8.50
2022-11-05T03:50:40.066Z,8.50
2022-11-05T03:51:19.763Z,8.50
2022-11-05T03:51:57.072Z,8.60
2022-11-05T03:52:37.205Z,8.60
2022-11-05T03:53:14.634Z,8.50
2022-11-05T03:53:50.156Z,8.50
2022-11-05T03:54:23.795Z,8.50
2022-11-05T03:54:56.059Z,8.50
2022-11-05T03:55:33.884Z,8.50
2022-11-05T03:56:11.497Z,8.40
2022-11-05T03:56:51.631Z,8.40
2022-11-05T03:57:27.640Z,8.40
2022-11-05T03:58:00.944Z,8.40
2022-11-05T03:58:33.119Z,8.40
2022-11-05T03:59:07.223Z,8.40
2022-11-05T03:59:42.998Z,8.40
2022-11-05T04:00:15.416Z,8.30
2022-11-05T04:00:48.179Z,8.30
2022-11-05T04:01:21.115Z,8.30
2022-11-05T04:01:54.982Z,8.30
2022-11-05T04:02:27.661Z,8.30
2022-11-05T04:02:59.593Z,8.30
2022-11-05T04:03:36.025Z,8.30
2022-11-05T04:04:08.946Z,8.30
2022-11-05T04:04:41.527Z,8.30
2022-11-05T04:05:13.544Z,8.30
2022-11-05T04:06:07.174Z,8.30
2022-11-05T04:06:57.568Z,8.30
2022-11-05T04:07:48.127Z,8.30
2022-11-05T04:08:38.527Z,8.30
2022-11-05T04:09:29.396Z,8.20
2022-11-05T04:10:19.877Z,8.20
2022-11-05T04:11:10.419Z,8.20
2022-11-05T04:12:00.695Z,8.20
2022-11-05T04:12:51.111Z,8.10
2022-11-05T04:13:27.581Z,8.20
2022-11-05T04:13:59.364Z,8.10
2022-11-05T04:14:31.294Z,8.10
2022-11-05T04:15:04.575Z,8.10
2022-11-05T04:15:51.245Z,8.10
2022-11-05T04:16:41.309Z,8.20
2022-11-05T04:17:14.467Z,8.20
2022-11-05T04:17:46.236Z,8.20
2022-11-05T04:18:18.024Z,8.20
2022-11-05T04:18:50.791Z,8.20
2022-11-05T04:19:37.479Z,8.20
2022-11-05T04:20:28.103Z,8.20
2022-11-05T04:21:18.615Z,8.20
2022-11-05T04:22:11.211Z,8.20
2022-11-05T04:23:01.309Z,8.20
2022-11-05T04:23:51.915Z,8.20
2022-11-05T04:24:24.690Z,8.20
2022-11-05T04:24:56.492Z,8.20
2022-11-05T04:25:28.335Z,8.30
2022-11-05T04:26:01.052Z,8.30
2022-11-05T04:26:32.838Z,8.30
2022-11-05T04:27:04.670Z,8.30
2022-11-05T04:27:38.117Z,8.30
2022-11-05T04:28:09.900Z,8.40
2022-11-05T04:29:06.774Z,8.40
2022-11-05T04:29:57.968Z,8.40
2022-11-05T04:30:29.780Z,8.40
2022-11-05T04:31:01.565Z,8.50
2022-11-05T04:31:33.361Z,8.40
2022-11-05T04:32:06.574Z,8.50
2022-11-05T04:32:39.745Z,8.50
2022-11-05T04:33:13.657Z,8.50
2022-11-05T04:33:46.790Z,8.50
2022-11-05T04:34:18.938Z,8.50
2022-11-05T04:34:50.756Z,8.50
2022-11-05T04:35:23.626Z,8.60
2022-11-05T04:35:55.408Z,8.50
2022-11-05T04:36:27.581Z,8.60
2022-11-05T04:37:00.319Z,8.60
2022-11-05T04:37:32.130Z,8.60
2022-11-05T04:38:05.952Z,8.60
2022-11-05T04:38:37.796Z,8.60
2022-11-05T04:39:09.593Z,8.60
2022-11-05T04:39:42.379Z,8.70
2022-11-05T04:40:14.252Z,8.70
2022-11-05T04:40:48.280Z,8.70
2022-11-05T04:41:20.241Z,8.70
2022-11-05T04:41:52.017Z,8.70
2022-11-05T04:42:24.761Z,8.80
2022-11-05T04:42:57.061Z,8.60
2022-11-05T04:43:28.849Z,8.70
2022-11-05T04:44:02.309Z,8.70
2022-11-05T04:44:34.160Z,8.70
2022-11-05T04:45:07.449Z,8.70
2022-11-05T04:45:39.341Z,8.70
2022-11-05T04:46:11.336Z,8.70
2022-11-05T04:46:44.277Z,8.70
2022-11-05T04:47:16.076Z,8.70
2022-11-05T04:47:49.433Z,8.70
2022-11-05T04:48:22.193Z,8.70
2022-11-05T04:48:54.016Z,8.70
2022-11-05T04:49:25.788Z,8.70
2022-11-05T04:49:58.568Z,8.70
2022-11-05T04:50:31.245Z,8.70
2022-11-05T04:51:03.585Z,8.70
2022-11-05T04:51:36.377Z,8.70
2022-11-05T04:52:08.207Z,8.70
2022-11-05T04:52:40.419Z,8.70
2022-11-05T04:53:13.618Z,8.70
2022-11-05T04:53:45.596Z,8.70
2022-11-05T04:54:17.705Z,8.70
2022-11-05T04:54:49.487Z,8.70
2022-11-05T04:55:22.647Z,8.70
2022-11-05T04:55:54.590Z,8.70
2022-11-05T04:56:26.558Z,8.60
2022-11-05T04:56:59.389Z,8.70
2022-11-05T04:57:31.242Z,8.70
2022-11-05T04:58:03.052Z,8.70
2022-11-05T04:58:38.987Z,8.70
2022-11-05T04:59:10.851Z,8.70
2022-11-05T04:59:42.607Z,8.70
2022-11-05T05:00:15.539Z,8.70
2022-11-05T05:00:49.849Z,8.70
2022-11-05T05:01:25.214Z,8.70
2022-11-05T05:01:57.173Z,8.70
2022-11-05T05:02:29.081Z,8.70
2022-11-05T05:03:03.247Z,8.60
2022-11-05T05:03:35.111Z,8.60
2022-11-05T05:04:06.896Z,8.60
2022-11-05T05:04:39.671Z,8.60
2022-11-05T05:05:11.740Z,8.60
2022-11-05T05:05:44.528Z,8.70
2022-11-05T05:06:17.200Z,8.70
2022-11-05T05:06:49.042Z,8.70
2022-11-05T05:07:21.822Z,8.70
2022-11-05T05:07:53.617Z,8.70
2022-11-05T05:08:25.387Z,8.80
2022-11-05T05:08:58.182Z,8.90
2022-11-05T05:09:29.994Z,8.80
2022-11-05T05:10:03.917Z,8.80
2022-11-05T05:10:36.727Z,8.90
2022-11-05T05:11:10.983Z,8.90
2022-11-05T05:11:43.787Z,8.90
2022-11-05T05:12:15.647Z,8.90
2022-11-05T05:12:48.392Z,8.90
2022-11-05T05:13:21.178Z,8.90
2022-11-05T05:13:52.975Z,8.90
2022-11-05T05:14:24.825Z,9.00
2022-11-05T05:14:57.554Z,8.90
2022-11-05T05:15:29.342Z,8.90
2022-11-05T05:16:05.305Z,8.90
2022-11-05T05:16:38.082Z,8.90
2022-11-05T05:17:10.126Z,8.80
2022-11-05T05:17:41.956Z,8.80
2022-11-05T05:18:15.113Z,8.80
2022-11-05T05:18:47.918Z,8.80
2022-11-05T05:19:19.741Z,8.80
2022-11-05T05:20:10.363Z,8.80
2022-11-05T05:21:00.776Z,8.70
2022-11-05T05:21:38.506Z,8.80
2022-11-05T05:22:11.002Z,8.80
2022-11-05T05:22:43.775Z,8.80
2022-11-05T05:23:15.554Z,8.70
2022-11-05T05:23:48.321Z,8.80
2022-11-05T05:24:24.797Z,8.70
2022-11-05T05:24:56.686Z,8.90
2022-11-05T05:25:28.587Z,8.80
2022-11-05T05:26:01.382Z,8.80
2022-11-05T05:26:33.177Z,8.80
2022-11-05T05:27:04.951Z,8.80
2022-11-05T05:27:37.712Z,8.80
2022-11-05T05:28:09.566Z,8.80
2022-11-05T05:28:41.334Z,8.80
2022-11-05T05:29:14.621Z,8.90
2022-11-05T05:29:46.447Z,8.90
2022-11-05T05:30:18.737Z,9.00
2022-11-05T05:30:56.146Z,9.00
2022-11-05T05:31:30.438Z,9.00
2022-11-05T05:32:03.243Z,9.00
2022-11-05T05:32:35.056Z,9.10
2022-11-05T05:33:06.896Z,9.10
2022-11-05T05:33:40.979Z,9.10
2022-11-05T05:34:14.437Z,9.20
2022-11-05T05:34:46.272Z,9.10
2022-11-05T05:35:19.060Z,9.20
2022-11-05T05:35:50.858Z,9.20
2022-11-05T05:36:23.407Z,9.20
2022-11-05T05:36:56.132Z,9.20
2022-11-05T05:37:27.904Z,9.20
2022-11-05T05:37:59.763Z,9.20
2022-11-05T05:38:32.503Z,9.20
2022-11-05T05:39:06.227Z,9.20
2022-11-05T05:39:38.073Z,9.20
2022-11-05T05:40:12.094Z,9.20
2022-11-05T05:40:43.987Z,9.20
2022-11-05T05:41:15.956Z,9.20
2022-11-05T05:41:48.732Z,9.20
2022-11-05T05:42:22.749Z,9.20
2022-11-05T05:42:55.153Z,9.10
2022-11-05T05:43:31.315Z,9.10
2022-11-05T05:44:05.217Z,9.10
2022-11-05T05:44:37.083Z,9.10
2022-11-05T05:45:10.469Z,9.10
2022-11-05T05:45:42.512Z,9.10
2022-11-05T05:46:15.843Z,9.10
2022-11-05T05:46:48.608Z,9.10
2022-11-05T05:47:20.441Z,9.10
2022-11-05T05:47:54.487Z,9.10
2022-11-05T05:48:27.206Z,9.10
2022-11-05T05:49:00.346Z,9.10
2022-11-05T05:49:32.258Z,9.10
2022-11-05T05:50:05.543Z,9.10
2022-11-05T05:50:37.336Z,9.10
2022-11-05T05:51:10.967Z,9.10
2022-11-05T05:51:43.739Z,9.10
2022-11-05T05:52:15.516Z,9.10
2022-11-05T05:52:47.330Z,9.10
2022-11-05T05:53:20.115Z,9.10
2022-11-05T05:53:53.664Z,9.00
2022-11-05T05:54:30.880Z,9.00
2022-11-05T05:55:06.111Z,9.00
2022-11-05T05:55:37.910Z,9.00
2022-11-05T05:56:09.726Z,8.90
2022-11-05T05:56:44.222Z,8.90
2022-11-05T05:57:16.020Z,8.90
2022-11-05T05:57:47.867Z,8.90
2022-11-05T05:58:20.623Z,8.90
2022-11-05T05:58:52.444Z,8.90
2022-11-05T05:59:24.255Z,8.90
2022-11-05T05:59:57.036Z,8.90
2022-11-05T06:00:28.838Z,8.90
2022-11-05T06:01:01.748Z,8.90
2022-11-05T06:01:34.655Z,8.90
2022-11-05T06:02:06.665Z,8.90
2022-11-05T06:02:38.933Z,8.90
2022-11-05T06:03:12.185Z,8.80
2022-11-05T06:03:44.271Z,8.80
2022-11-05T06:04:17.416Z,8.80
2022-11-05T06:04:50.224Z,8.90
2022-11-05T06:05:22.032Z,8.80
2022-11-05T06:05:53.819Z,8.80
2022-11-05T06:06:26.602Z,8.80
2022-11-05T06:06:58.452Z,8.80
2022-11-05T06:07:34.528Z,8.80
2022-11-05T06:08:10.188Z,8.90
2022-11-05T06:08:42.356Z,8.80
2022-11-05T06:09:15.854Z,8.80
2022-11-05T06:09:47.647Z,8.80
2022-11-05T06:10:19.414Z,8.80
2022-11-05T06:10:52.595Z,8.90
2022-11-05T06:11:25.292Z,8.80
2022-11-05T06:11:58.109Z,8.80
2022-11-05T06:12:30.257Z,8.90
2022-11-05T06:13:02.635Z,8.90
2022-11-05T06:13:36.578Z,8.90
2022-11-05T06:14:10.619Z,8.90
2022-11-05T06:14:42.538Z,8.90
2022-11-05T06:15:15.430Z,8.90
2022-11-05T06:15:47.407Z,8.90
2022-11-05T06:16:19.419Z,8.90
2022-11-05T06:16:52.151Z,8.90
2022-11-05T06:17:24.073Z,8.90
2022-11-05T06:17:55.860Z,8.90
2022-11-05T06:18:28.711Z,8.80
2022-11-05T06:19:00.489Z,8.80
2022-11-05T06:19:33.603Z,8.80
2022-11-05T06:20:08.768Z,8.80
2022-11-05T06:20:40.839Z,8.70
2022-11-05T06:21:15.795Z,8.80
2022-11-05T06:21:47.594Z,8.70
2022-11-05T06:22:19.399Z,8.70
2022-11-05T06:22:55.943Z,8.70
2022-11-05T06:23:27.745Z,8.70
2022-11-05T06:24:01.426Z,8.70
2022-11-05T06:24:33.207Z,8.70
2022-11-05T06:25:06.224Z,8.70
2022-11-05T06:25:41.442Z,8.70
2022-11-05T06:26:15.491Z,8.70
2022-11-05T06:26:48.280Z,8.80
2022-11-05T06:27:20.074Z,8.80
2022-11-05T06:27:52.987Z,8.70
2022-11-05T06:28:25.746Z,8.70
2022-11-05T06:28:57.665Z,8.70
2022-11-05T06:29:29.456Z,8.70
2022-11-05T06:30:02.221Z,8.70
2022-11-05T06:30:34.039Z,8.70
2022-11-05T06:31:05.925Z,8.70
2022-11-05T06:31:38.688Z,8.70
2022-11-05T06:32:10.469Z,8.80
2022-11-05T06:32:42.299Z,8.80
2022-11-05T06:33:14.181Z,8.80
2022-11-05T06:33:47.630Z,8.80
2022-11-05T06:34:19.442Z,8.90
2022-11-05T06:34:52.593Z,8.90
2022-11-05T06:35:25.381Z,8.90
2022-11-05T06:35:59.308Z,8.90
2022-11-05T06:36:31.084Z,8.90
2022-11-05T06:37:03.984Z,8.90
2022-11-05T06:37:35.902Z,8.90
2022-11-05T06:38:07.703Z,8.90
2022-11-05T06:38:40.447Z,8.90
2022-11-05T06:39:12.598Z,8.90
2022-11-05T06:39:44.371Z,8.90
2022-11-05T06:40:17.272Z,8.90
2022-11-05T06:40:49.031Z,8.90
2022-11-05T06:41:21.862Z,8.90
2022-11-05T06:42:46.388Z,8.90
2022-11-05T06:43:18.295Z,8.90
2022-11-05T06:43:50.167Z,8.90
2022-11-05T06:44:22.946Z,8.90
2022-11-05T06:44:54.769Z,8.90
2022-11-05T06:45:26.619Z,8.90
2022-11-05T06:46:02.333Z,8.90
2022-11-05T06:46:34.262Z,8.90
2022-11-05T06:47:06.670Z,8.90
2022-11-05T06:47:39.439Z,8.90
2022-11-05T06:48:11.266Z,8.90
2022-11-05T06:48:44.022Z,8.90
2022-11-05T06:49:15.803Z,8.90
2022-11-05T06:49:47.714Z,8.90
2022-11-05T06:50:21.855Z,8.90
2022-11-05T06:50:53.690Z,9.00
2022-11-05T06:51:25.508Z,9.00
2022-11-05T06:51:59.153Z,9.00
2022-11-05T06:52:31.215Z,9.00
2022-11-05T06:53:05.329Z,9.00
2022-11-05T06:53:37.140Z,9.00
2022-11-05T06:54:09.264Z,9.00
2022-11-05T06:54:43.765Z,9.00
2022-11-05T06:55:15.643Z,8.90
2022-11-05T06:55:47.863Z,8.90
2022-11-05T06:56:20.684Z,8.90
2022-11-05T06:56:52.511Z,8.90
2022-11-05T06:57:24.484Z,8.90
2022-11-05T06:57:58.052Z,8.90
2022-11-05T06:58:30.858Z,8.90
2022-11-05T06:59:02.761Z,8.90
2022-11-05T06:59:35.742Z,8.90
2022-11-05T07:00:09.057Z,8.90
2022-11-05T07:00:40.923Z,8.90
2022-11-05T07:01:13.817Z,8.90
2022-11-05T07:01:46.067Z,8.90
2022-11-05T07:02:18.249Z,8.90
2022-11-05T07:02:51.160Z,8.90
2022-11-05T07:03:22.958Z,8.90
2022-11-05T07:03:55.960Z,8.90
2022-11-05T07:04:27.788Z,8.90
2022-11-05T07:04:59.830Z,8.90
2022-11-05T07:05:34.733Z,8.90
2022-11-05T07:06:07.582Z,8.90
2022-11-05T07:06:39.391Z,8.90
2022-11-05T07:07:12.141Z,8.90
2022-11-05T07:07:45.049Z,8.90
2022-11-05T07:08:17.376Z,8.90
2022-11-05T07:08:50.143Z,8.90
2022-11-05T07:09:22.639Z,8.90
2022-11-05T07:09:54.508Z,8.90
2022-11-05T07:10:27.527Z,8.90
2022-11-05T07:10:59.666Z,8.90
2022-11-05T07:11:31.505Z,8.90
2022-11-05T07:12:04.622Z,8.90
2022-11-05T07:12:36.498Z,8.90
2022-11-05T07:13:08.944Z,8.90
2022-11-05T07:13:41.995Z,9.00
2022-11-05T07:14:13.765Z,8.90
2022-11-05T07:14:45.568Z,8.90
2022-11-05T07:15:18.472Z,8.90
2022-11-05T07:15:50.289Z,8.90
2022-11-05T07:16:23.021Z,8.90
2022-11-05T07:16:56.376Z,8.90
2022-11-05T07:17:28.200Z,8.90
2022-11-05T07:18:01.931Z,8.90
2022-11-05T07:18:33.731Z,8.90
2022-11-05T07:19:05.564Z,8.90
2022-11-05T07:19:38.321Z,8.90
2022-11-05T07:20:10.942Z,8.90
2022-11-05T07:20:44.090Z,8.90
2022-11-05T07:21:16.808Z,8.90
2022-11-05T07:21:50.709Z,8.90
2022-11-05T07:22:22.518Z,8.90
2022-11-05T07:23:02.747Z,8.90
2022-11-05T07:23:34.539Z,8.90
2022-11-05T07:24:07.485Z,8.90
2022-11-05T07:24:40.285Z,8.90
2022-11-05T07:25:12.133Z,8.90
2022-11-05T07:25:44.307Z,8.90
2022-11-05T07:26:17.096Z,8.90
2022-11-05T07:26:48.906Z,8.90
2022-11-05T07:27:20.740Z,8.90
2022-11-05T07:27:53.815Z,8.90
2022-11-05T07:28:25.635Z,8.90
2022-11-05T07:28:57.671Z,8.90
2022-11-05T07:29:30.439Z,9.00
2022-11-05T07:30:02.213Z,9.00
2022-11-05T07:30:35.636Z,9.00
2022-11-05T07:31:08.394Z,9.00
2022-11-05T07:31:40.181Z,9.00
2022-11-05T07:32:12.009Z,9.10
2022-11-05T07:32:44.776Z,9.10
2022-11-05T07:33:16.719Z,9.10
2022-11-05T07:33:48.811Z,9.10
2022-11-05T07:34:21.598Z,9.10
2022-11-05T07:34:53.386Z,9.10
2022-11-05T07:35:25.507Z,9.10
2022-11-05T07:35:59.902Z,9.10
2022-11-05T07:36:31.687Z,9.10
2022-11-05T07:37:03.508Z,9.10
2022-11-05T07:37:43.173Z,9.10
2022-11-05T07:38:15.015Z,9.00
2022-11-05T07:38:47.759Z,9.10
2022-11-05T07:39:19.758Z,9.00
2022-11-05T07:39:51.518Z,9.00
2022-11-05T07:40:26.450Z,9.00
2022-11-05T07:40:59.728Z,9.10
2022-11-05T07:41:31.554Z,9.10
2022-11-05T07:42:04.582Z,9.10
2022-11-05T07:42:36.368Z,9.10
2022-11-05T07:43:10.317Z,9.10
2022-11-05T07:43:42.462Z,9.10
2022-11-05T07:44:14.418Z,9.20
2022-11-05T07:44:47.238Z,9.20
2022-11-05T07:45:19.835Z,9.20
2022-11-05T07:45:51.617Z,9.20
2022-11-05T07:46:24.348Z,9.20
2022-11-05T07:46:56.186Z,9.10
2022-11-05T07:47:27.972Z,9.10
2022-11-05T07:48:02.484Z,9.10
2022-11-05T07:48:34.308Z,9.10
2022-11-05T07:49:06.110Z,9.10
2022-11-05T07:49:39.162Z,9.10
2022-11-05T07:50:11.426Z,9.10
2022-11-05T07:50:44.210Z,9.20
2022-11-05T07:51:17.383Z,9.20
2022-11-05T07:51:49.180Z,9.20
2022-11-05T07:52:21.952Z,9.20
2022-11-05T07:52:53.763Z,9.10
2022-11-05T07:53:26.522Z,9.10
2022-11-05T07:53:58.388Z,9.20
2022-11-05T07:54:30.225Z,9.20